createdAt,value
2023-05-03T00:00:53.522Z,6.95
2023-05-03T00:03:24.006Z,6.47
2023-05-03T00:05:50.757Z,6.22
2023-05-03T00:08:19.579Z,6.43
2023-05-03T00:10:48.225Z,6.47
2023-05-03T00:13:17.777Z,6.30
2023-05-03T00:15:48.799Z,6.60
2023-05-03T00:18:16.161Z,6.35
2023-05-03T00:20:42.823Z,6.55
2023-05-03T00:23:12.131Z,6.30
2023-05-03T00:25:43.214Z,6.43
2023-05-03T00:28:11.150Z,6.13
2023-05-03T00:30:37.941Z,6.55
2023-05-03T00:33:06.728Z,7.10
2023-05-03T00:35:38.206Z,7.13
2023-05-03T00:38:06.135Z,7.05
2023-05-03T00:40:33.592Z,6.75
2023-05-03T00:43:00.416Z,6.47
2023-05-03T00:50:37.372Z,6.60
2023-05-03T00:53:05.334Z,6.55
2023-05-03T00:55:42.403Z,7.15
2023-05-03T00:58:09.299Z,6.45
2023-05-03T01:00:39.197Z,7.32
2023-05-03T01:03:17.169Z,7.20
2023-05-03T01:06:02.676Z,6.60
2023-05-03T01:08:42.281Z,7.28
2023-05-03T01:11:19.932Z,7.68
2023-05-03T01:14:09.184Z,7.63
2023-05-03T01:16:54.768Z,7.13
2023-05-03T01:22:47.903Z,6.80
2023-05-03T01:25:17.467Z,6.85
2023-05-03T01:27:45.607Z,6.85
2023-05-03T01:30:14.495Z,7.15
2023-05-03T01:33:01.754Z,7.40
2023-05-03T01:35:52.645Z,7.13
2023-05-03T01:38:23.376Z,7.13
2023-05-03T01:40:55.958Z,6.75
2023-05-03T01:43:25.239Z,7.22
2023-05-03T01:45:52.821Z,7.80
2023-05-03T01:48:24.353Z,7.10
2023-05-03T01:50:52.243Z,7.18
2023-05-03T01:53:21.100Z,7.13
2023-05-03T01:55:47.763Z,6.93
2023-05-03T01:58:14.308Z,7.10
2023-05-03T02:00:41.546Z,7.65
2023-05-03T02:03:08.611Z,7.38
2023-05-03T02:05:35.376Z,7.63
2023-05-03T02:08:04.729Z,7.57
2023-05-03T02:10:35.354Z,7.22
2023-05-03T02:13:06.390Z,7.25
2023-05-03T02:15:33.398Z,7.50
2023-05-03T02:18:03.320Z,7.40
2023-05-03T02:20:35.743Z,7.28
2023-05-03T02:25:52.600Z,7.85
2023-05-03T02:28:20.895Z,7.47
2023-05-03T02:30:48.070Z,7.70
2023-05-03T02:33:14.799Z,7.05
2023-05-03T02:35:41.485Z,7.85
2023-05-03T02:38:10.316Z,8.30
2023-05-03T02:40:42.564Z,7.18
2023-05-03T02:43:11.091Z,7.88
2023-05-03T02:45:42.572Z,7.60
2023-05-03T02:48:15.660Z,7.22
2023-05-03T02:50:44.156Z,7.60
2023-05-03T02:53:11.962Z,8.32
2023-05-03T02:55:47.279Z,7.60
2023-05-03T02:58:17.193Z,7.25
2023-05-03T03:00:52.797Z,7.03
2023-05-03T03:03:32.608Z,7.93
2023-05-03T03:06:01.507Z,7.63
2023-05-03T03:08:28.114Z,8.32
2023-05-03T03:10:57.730Z,8.57
2023-05-03T03:13:28.509Z,7.93
2023-05-03T03:15:55.189Z,7.93
2023-05-03T03:18:22.455Z,7.53
2023-05-03T03:20:49.107Z,8.05
2023-05-03T03:23:17.650Z,7.53
2023-05-03T03:25:55.760Z,7.90
2023-05-03T03:28:25.222Z,7.47
2023-05-03T03:30:52.106Z,7.35
2023-05-03T03:33:29.483Z,7.68
2023-05-03T03:35:56.021Z,7.90
2023-05-03T03:38:23.375Z,7.30
2023-05-03T03:41:03.447Z,7.03
2023-05-03T03:43:30.842Z,7.35
2023-05-03T03:45:57.693Z,7.35
2023-05-03T03:48:25.292Z,7.97
2023-05-03T03:50:53.471Z,7.78
2023-05-03T03:53:22.814Z,8.48
2023-05-03T03:55:50.774Z,8.27
2023-05-03T03:58:17.614Z,8.30
2023-05-03T04:00:48.302Z,7.68
2023-05-03T04:03:15.989Z,8.00
2023-05-03T04:05:42.865Z,8.48
2023-05-03T04:08:09.898Z,8.07
2023-05-03T04:10:36.507Z,8.00
2023-05-03T04:13:03.455Z,7.25
2023-05-03T04:15:32.720Z,7.85
2023-05-03T04:17:59.455Z,8.27
2023-05-03T04:20:27.248Z,8.30
2023-05-03T04:23:01.327Z,8.35
2023-05-03T04:25:31.381Z,8.10
2023-05-03T04:27:59.445Z,7.85
2023-05-03T04:30:27.208Z,8.00
2023-05-03T04:32:55.654Z,8.35
2023-05-03T04:35:23.351Z,8.40
2023-05-03T04:37:51.515Z,8.48
2023-05-03T04:40:20.099Z,8.38
2023-05-03T04:42:47.950Z,7.72
2023-05-03T04:45:14.862Z,8.70
2023-05-03T04:47:44.813Z,8.40
2023-05-03T04:50:13.415Z,8.30
2023-05-03T04:52:40.674Z,8.70
2023-05-03T04:55:11.065Z,8.27
2023-05-03T04:57:43.012Z,9.02
2023-05-03T05:00:12.097Z,8.68
2023-05-03T05:02:38.786Z,7.70
2023-05-03T05:05:14.779Z,7.85
2023-05-03T05:07:42.285Z,8.60
2023-05-03T05:10:11.712Z,8.02
2023-05-03T05:12:44.927Z,8.60
2023-05-03T05:15:18.060Z,7.97
2023-05-03T05:17:50.746Z,8.30
2023-05-03T05:25:40.298Z,7.55
2023-05-03T05:28:07.703Z,7.25
2023-05-03T05:30:35.615Z,7.72
2023-05-03T05:33:02.588Z,8.20
2023-05-03T05:35:30.126Z,8.05
2023-05-03T05:37:57.432Z,8.18
2023-05-03T05:40:26.457Z,7.40
2023-05-03T05:45:36.345Z,7.80
2023-05-03T05:48:05.929Z,7.32
2023-05-03T05:50:32.661Z,7.68
2023-05-03T05:52:59.387Z,7.00
2023-05-03T05:55:25.986Z,8.18
2023-05-03T06:04:26.913Z,7.57
2023-05-03T06:06:57.450Z,7.10
2023-05-03T06:09:25.241Z,7.78
2023-05-03T06:11:52.811Z,7.20
2023-05-03T06:14:21.059Z,6.68
2023-05-03T06:16:57.868Z,7.05
2023-05-03T06:19:26.861Z,7.00
2023-05-03T06:21:58.547Z,6.55
2023-05-03T06:24:31.935Z,6.17
2023-05-03T06:27:00.452Z,6.90
2023-05-03T06:29:29.538Z,6.50
2023-05-03T06:32:00.180Z,6.03
2023-05-03T06:37:14.068Z,6.05
2023-05-03T06:39:47.212Z,5.93
2023-05-03T06:42:16.942Z,6.25
2023-05-03T06:44:50.900Z,5.70
2023-05-03T06:47:25.866Z,6.30
2023-05-03T06:49:54.948Z,5.70
2023-05-03T06:52:22.860Z,6.13
2023-05-03T06:54:51.096Z,5.82
2023-05-03T06:57:28.666Z,5.80
2023-05-03T07:00:05.173Z,6.00
2023-05-03T07:02:35.585Z,5.57
2023-05-03T07:05:10.798Z,5.82
2023-05-03T07:07:47.300Z,5.10
2023-05-03T07:10:15.513Z,5.03
2023-05-03T07:12:42.872Z,5.70
2023-05-03T07:15:20.157Z,5.82
2023-05-03T07:21:21.968Z,5.80
2023-05-03T07:24:04.839Z,5.68
2023-05-03T07:29:15.600Z,4.95
2023-05-03T07:31:48.340Z,5.78
2023-05-03T07:40:38.655Z,5.43
2023-05-03T07:43:08.392Z,5.75
2023-05-03T07:45:39.461Z,5.72
2023-05-03T07:48:17.200Z,5.55
2023-05-03T07:50:53.833Z,5.80
2023-05-03T07:56:04.888Z,5.90
2023-05-03T07:58:43.670Z,6.25
2023-05-03T08:01:13.715Z,5.80
2023-05-03T08:03:49.019Z,5.38
2023-05-03T08:06:19.827Z,5.93
2023-05-03T08:08:56.076Z,6.20
2023-05-03T08:14:23.371Z,5.75
2023-05-03T08:16:59.945Z,5.43
2023-05-03T08:19:39.385Z,5.95
2023-05-03T08:22:14.779Z,5.90
2023-05-03T08:24:50.069Z,5.60
2023-05-03T08:27:20.449Z,5.07
2023-05-03T08:29:51.630Z,5.50
2023-05-03T08:32:24.368Z,5.22
2023-05-03T08:37:45.880Z,5.57
2023-05-03T08:40:17.721Z,5.55
2023-05-03T08:45:29.550Z,5.40
2023-05-03T08:48:05.116Z,5.30
2023-05-03T08:50:35.051Z,5.32
2023-05-03T08:53:06.244Z,5.13
2023-05-03T08:55:49.075Z,5.63
2023-05-03T08:58:18.292Z,5.55
2023-05-03T09:00:47.861Z,5.78
2023-05-03T09:03:15.463Z,5.75
2023-05-03T09:05:52.550Z,5.35
2023-05-03T09:08:32.282Z,5.28
2023-05-03T09:11:16.646Z,5.45
2023-05-03T09:13:47.533Z,5.22
2023-05-03T09:16:26.615Z,5.75
2023-05-03T09:19:02.566Z,5.38
2023-05-03T09:21:31.718Z,5.50
2023-05-03T09:29:43.751Z,5.47
2023-05-03T09:32:17.821Z,6.07
2023-05-03T09:40:32.144Z,6.10
2023-05-03T09:45:52.231Z,6.15
2023-05-03T09:48:24.251Z,5.95
2023-05-03T09:50:51.725Z,6.05
2023-05-03T09:53:22.089Z,6.57
2023-05-03T09:55:56.552Z,6.63
2023-05-03T09:58:35.035Z,5.88
2023-05-03T10:01:05.026Z,6.35
2023-05-03T10:03:52.726Z,5.75
2023-05-03T10:06:35.145Z,5.18
2023-05-03T10:09:46.345Z,5.88
2023-05-03T10:12:20.227Z,5.20
2023-05-03T10:14:56.770Z,6.10
2023-05-03T10:20:46.479Z,5.90
2023-05-03T10:23:26.570Z,5.97
2023-05-03T10:26:13.790Z,5.30
2023-05-03T10:28:41.281Z,5.20
2023-05-03T10:34:33.484Z,6.00
2023-05-03T10:37:13.728Z,4.40
2023-05-03T10:39:45.816Z,4.93
2023-05-03T10:42:16.298Z,4.68
2023-05-03T10:44:50.535Z,4.93
2023-05-03T10:47:19.551Z,4.47
2023-05-03T10:49:55.200Z,4.72
2023-05-03T10:52:59.656Z,5.13
2023-05-03T10:55:27.003Z,4.72
2023-05-03T11:00:46.885Z,4.32
2023-05-03T11:04:04.865Z,4.28
2023-05-03T11:06:41.557Z,3.55
2023-05-03T11:09:19.969Z,5.03
2023-05-03T11:11:48.479Z,4.78
2023-05-03T11:14:18.011Z,5.20
2023-05-03T11:16:50.749Z,4.80
2023-05-03T11:19:17.656Z,4.38
2023-05-03T11:21:48.472Z,4.43
2023-05-03T11:24:19.115Z,4.40
2023-05-03T11:27:09.716Z,4.40
2023-05-03T11:29:59.716Z,5.03
2023-05-03T11:32:27.799Z,3.97
2023-05-03T11:34:54.733Z,4.45
2023-05-03T11:40:34.980Z,4.65
2023-05-03T11:43:02.371Z,4.15
2023-05-03T11:45:35.989Z,4.85
2023-05-03T11:48:03.488Z,4.95
2023-05-03T11:50:59.858Z,4.88
2023-05-03T11:53:28.751Z,4.63
2023-05-03T11:55:58.341Z,4.90
2023-05-03T11:58:29.546Z,4.55
2023-05-03T12:01:05.582Z,5.53
2023-05-03T12:06:21.710Z,4.40
2023-05-03T12:11:44.806Z,4.20
2023-05-03T12:16:56.964Z,4.45
2023-05-03T12:19:31.112Z,4.22
2023-05-03T12:24:40.549Z,3.83
2023-05-03T12:27:08.447Z,4.40
2023-05-03T12:29:40.880Z,4.65
2023-05-03T12:32:11.686Z,3.80
2023-05-03T12:37:11.675Z,4.03
2023-05-03T12:40:16.313Z,4.10
2023-05-03T12:42:53.819Z,4.28
2023-05-03T12:45:21.587Z,3.72
2023-05-03T12:50:38.783Z,3.00
2023-05-03T12:53:11.037Z,3.38
2023-05-03T12:55:52.491Z,3.10
2023-05-03T13:06:31.475Z,2.80
2023-05-03T13:09:21.327Z,3.50
2023-05-03T13:11:52.803Z,3.13
2023-05-03T13:20:07.798Z,3.92
2023-05-03T13:22:42.313Z,3.10
2023-05-03T13:30:47.625Z,3.25
2023-05-03T13:36:01.873Z,3.58
2023-05-03T13:38:33.210Z,3.10
2023-05-03T13:41:35.605Z,3.55
2023-05-03T13:46:56.154Z,2.92
2023-05-03T13:49:26.638Z,3.65
2023-05-03T13:54:20.281Z,2.78
2023-05-03T14:03:01.100Z,3.00
2023-05-03T14:08:34.839Z,3.28
2023-05-03T14:16:55.097Z,2.80
2023-05-03T14:27:39.324Z,2.90
2023-05-03T14:30:11.021Z,3.35
2023-05-03T14:32:39.210Z,3.35
2023-05-03T14:35:15.345Z,3.05
2023-05-03T14:37:45.406Z,2.25
2023-05-03T14:40:32.641Z,2.95
2023-05-03T14:43:04.991Z,3.53
2023-05-03T14:48:24.359Z,2.60
2023-05-03T14:50:57.683Z,2.75
2023-05-03T14:53:32.517Z,2.85
2023-05-03T14:58:53.431Z,2.65
2023-05-03T15:01:22.487Z,2.90
2023-05-03T15:03:57.236Z,3.00
2023-05-03T15:09:38.076Z,2.35
2023-05-03T15:12:23.728Z,2.42
2023-05-03T15:14:52.533Z,2.70
2023-05-03T15:17:45.742Z,2.78
2023-05-03T15:20:18.929Z,3.30
2023-05-03T15:23:05.308Z,2.33
2023-05-03T15:25:35.013Z,2.63
2023-05-03T15:28:11.416Z,2.30
2023-05-03T15:31:04.288Z,2.60
2023-05-03T15:33:43.571Z,2.47
2023-05-03T15:36:15.992Z,2.47
2023-05-03T15:44:41.704Z,2.30
2023-05-03T15:49:59.922Z,2.40
2023-05-03T15:52:29.455Z,2.50
2023-05-03T15:55:02.166Z,2.22
2023-05-03T15:57:51.346Z,2.20
2023-05-03T16:00:22.202Z,2.53
2023-05-03T16:02:50.945Z,2.38
2023-05-03T16:05:20.727Z,2.40
2023-05-03T16:10:37.501Z,5.00
2023-05-03T16:13:12.823Z,2.80
2023-05-03T16:18:33.057Z,2.40
2023-05-03T16:21:06.952Z,2.00
2023-05-03T16:23:42.572Z,2.00
2023-05-03T16:26:16.893Z,2.20
2023-05-03T16:28:53.353Z,2.20
2023-05-03T16:31:24.352Z,1.80
2023-05-03T16:33:54.018Z,2.13
2023-05-03T16:39:04.191Z,2.10
2023-05-03T16:41:31.444Z,2.10
2023-05-03T16:43:58.525Z,2.10
2023-05-03T16:46:25.490Z,1.75
2023-05-03T16:48:54.231Z,1.92
2023-05-03T16:54:09.041Z,2.00
2023-05-03T16:56:43.023Z,2.10
2023-05-03T16:59:38.007Z,2.05
2023-05-03T17:02:08.930Z,1.77
2023-05-03T17:13:05.733Z,1.30
2023-05-03T17:18:45.190Z,1.58
2023-05-03T17:21:32.885Z,1.33
2023-05-03T17:24:06.132Z,1.65
2023-05-03T17:32:15.249Z,1.65
2023-05-03T17:40:46.648Z,1.60
2023-05-03T17:46:11.547Z,1.90
2023-05-03T17:49:00.980Z,1.60
2023-05-03T17:51:33.797Z,1.85
2023-05-03T17:54:06.557Z,1.52
2023-05-03T18:02:18.115Z,1.50
2023-05-03T18:07:37.195Z,1.30
2023-05-03T18:10:18.926Z,1.40
2023-05-03T18:13:13.025Z,1.50
2023-05-03T18:16:17.892Z,1.60
2023-05-03T18:18:52.113Z,1.50
2023-05-03T18:21:22.775Z,1.65
2023-05-03T18:29:20.896Z,1.55
2023-05-03T18:34:38.089Z,1.33
2023-05-03T19:00:07.858Z,2.00
2023-05-03T20:31:57.860Z,1.90
2023-05-03T20:40:12.902Z,2.08
2023-05-03T20:42:44.470Z,2.22
2023-05-03T20:45:18.009Z,2.17
2023-05-03T20:50:32.161Z,2.17
2023-05-03T20:58:31.811Z,2.50
2023-05-03T21:01:06.352Z,3.17
2023-05-03T21:17:49.981Z,2.72
2023-05-03T21:20:20.028Z,3.30
2023-05-03T21:22:55.558Z,2.45
2023-05-03T21:25:32.885Z,2.87
2023-05-03T21:28:02.662Z,2.88
2023-05-03T21:30:30.714Z,3.33
2023-05-03T21:32:59.604Z,3.08
2023-05-03T21:35:27.282Z,2.65
2023-05-03T21:38:05.971Z,2.53
2023-05-03T21:40:35.410Z,2.70
2023-05-03T21:43:11.859Z,3.03
2023-05-03T21:45:50.137Z,2.90
2023-05-03T21:48:31.869Z,3.03
2023-05-03T21:51:25.535Z,2.97
2023-05-03T21:53:58.428Z,2.95
2023-05-03T21:56:25.215Z,3.50
2023-05-03T21:58:51.758Z,3.50
2023-05-03T22:01:20.688Z,3.63
2023-05-03T22:03:48.851Z,3.17
2023-05-03T22:08:58.297Z,3.38
2023-05-03T22:11:24.908Z,3.40
2023-05-03T22:14:08.142Z,3.50
2023-05-03T22:16:40.928Z,3.13
2023-05-03T22:19:12.552Z,3.05
2023-05-03T22:21:40.063Z,2.95
2023-05-03T22:24:12.286Z,2.92
2023-05-03T22:26:38.812Z,2.97
2023-05-03T22:29:05.521Z,2.95
2023-05-03T22:31:35.092Z,2.97
2023-05-03T22:34:08.633Z,3.00
2023-05-03T22:36:39.636Z,3.30
2023-05-03T22:41:47.847Z,3.13
2023-05-03T22:44:18.578Z,2.97
2023-05-03T22:46:48.314Z,2.95
2023-05-03T22:49:20.518Z,3.15
2023-05-03T22:51:52.414Z,3.08
2023-05-03T22:54:22.137Z,3.17
2023-05-03T23:02:49.440Z,3.22
2023-05-03T23:05:19.745Z,3.00
2023-05-03T23:07:48.086Z,3.13
2023-05-03T23:10:17.562Z,3.10
2023-05-03T23:12:55.971Z,3.00
2023-05-03T23:15:24.200Z,3.40
2023-05-03T23:17:51.610Z,2.80
2023-05-03T23:20:20.868Z,3.22
2023-05-03T23:22:51.436Z,3.08
2023-05-03T23:25:25.837Z,2.83
2023-05-03T23:27:53.366Z,3.10
2023-05-03T23:33:08.108Z,3.10
2023-05-03T23:35:36.966Z,2.75
2023-05-03T23:38:03.803Z,2.95
2023-05-03T23:40:30.983Z,2.95
2023-05-03T23:42:58.473Z,3.50
2023-05-03T23:45:27.189Z,2.80
2023-05-03T23:47:56.988Z,3.20
2023-05-03T23:50:23.698Z,2.63
2023-05-03T23:52:50.229Z,3.03
2023-05-03T23:55:19.480Z,3.40
2023-05-03T23:57:47.850Z,3.38
